Time;durP1;ratioP1;P1;durP2;ratioP2;P2;SDS_P1;SDS_P2;PMS_P1;PMS_P2;Temp;Humidity;BMP_temperature;BMP_pressure;BME280_temperature;BME280_humidity;BME280_pressure;Samples;Min_cycle;Max_cycle;Signal;HPM_P1;HPM_P2
2021/06/09 00:00:12;;;;;;;;;;;15.00;99.90;;;;;;4988410;28;19930;-61
2021/06/09 00:02:39;;;;;;;;;;;15.00;99.90;;;;;;4988825;28;19930;-61
2021/06/09 00:05:07;;;;;;;;;;;15.00;99.90;;;;;;4988122;28;20023;-61
2021/06/09 00:07:35;;;;;;;;;;;14.90;99.90;;;;;;4985143;28;19930;-63
2021/06/09 00:10:04;;;;;;;;;;;14.90;99.90;;;;;;4987811;28;19933;-61
2021/06/09 00:12:33;;;;;;;;;;;14.90;99.90;;;;;;4988403;28;19930;-62
2021/06/09 00:15:01;;;;;;;;;;;14.80;99.90;;;;;;4991165;28;20281;-62
2021/06/09 00:17:29;;;;;;;;;;;14.80;99.90;;;;;;4988224;28;19929;-60
2021/06/09 00:19:57;;;;;;;;;;;14.80;99.90;;;;;;4984572;28;19926;-63
2021/06/09 00:22:24;;;;;;;;;;;14.80;99.90;;;;;;4991877;28;20382;-61
2021/06/09 00:24:52;;;;;;;;;;;14.70;99.90;;;;;;4989495;28;20640;-62
2021/06/09 00:27:20;;;;;;;;;;;14.70;99.90;;;;;;4989740;28;20403;-62
2021/06/09 00:29:49;;;;;;;;;;;14.70;99.90;;;;;;4993224;28;19926;-63
2021/06/09 00:32:17;;;;;;;;;;;14.70;99.90;;;;;;4987247;28;20016;-61
2021/06/09 00:34:45;;;;;;;;;;;14.70;99.90;;;;;;4992597;28;19929;-62
2021/06/09 00:37:13;;;;;;;;;;;14.60;99.90;;;;;;4997312;28;19930;-65
2021/06/09 00:39:42;;;;;;;;;;;14.60;99.90;;;;;;4982708;28;19937;-62
2021/06/09 00:42:11;;;;;;;;;;;14.50;99.90;;;;;;4999094;28;19930;-62
2021/06/09 00:44:39;;;;;;;;;;;14.50;99.90;;;;;;5001866;28;20138;-62
2021/06/09 00:47:10;;;;;;;;;;;14.50;99.90;;;;;;4992586;28;19934;-63
2021/06/09 00:49:38;;;;;;;;;;;14.50;99.90;;;;;;4998614;28;19926;-62
2021/06/09 00:52:06;;;;;;;;;;;14.50;99.90;;;;;;5000145;28;19925;-62
2021/06/09 00:54:33;;;;;;;;;;;14.50;99.90;;;;;;4978304;28;20024;-62
2021/06/09 00:57:01;;;;;;;;;;;14.50;99.90;;;;;;4997131;28;19965;-62
2021/06/09 00:59:33;;;;;;;;;;;14.50;99.90;;;;;;4993300;28;19964;-62
2021/06/09 01:02:00;;;;;;;;;;;14.50;99.90;;;;;;4994271;28;19988;-63
2021/06/09 01:04:30;;;;;;;;;;;14.50;99.90;;;;;;4991501;28;19958;-62
2021/06/09 01:07:00;;;;;;;;;;;14.40;99.90;;;;;;4997750;28;19926;-62
2021/06/09 01:09:52;;;;;;;;;;;14.40;99.90;;;;;;4996460;28;19997;-62
2021/06/09 01:12:20;;;;;;;;;;;14.40;99.90;;;;;;4996703;28;19932;-62
2021/06/09 01:14:48;;;;;;;;;;;14.40;99.90;;;;;;4994409;28;19986;-62
2021/06/09 01:17:16;;;;;;;;;;;14.40;99.90;;;;;;4990622;28;19972;-63
2021/06/09 01:19:45;;;;;;;;;;;14.40;99.90;;;;;;4995549;28;19925;-63
2021/06/09 01:22:14;;;;;;;;;;;14.40;99.90;;;;;;4989913;28;19926;-67
2021/06/09 01:24:42;;;;;;;;;;;14.40;99.90;;;;;;4995195;28;20498;-62
2021/06/09 01:27:09;;;;;;;;;;;14.30;99.90;;;;;;4994773;28;19926;-62
2021/06/09 01:29:38;;;;;;;;;;;14.30;99.90;;;;;;4993639;28;20425;-63
2021/06/09 01:32:06;;;;;;;;;;;14.20;99.90;;;;;;4987608;28;19926;-63
2021/06/09 01:34:34;;;;;;;;;;;14.20;99.90;;;;;;4994755;28;19965;-63
2021/06/09 01:37:07;;;;;;;;;;;14.20;99.90;;;;;;4994426;28;19932;-63
2021/06/09 01:40:01;;;;;;;;;;;14.20;99.90;;;;;;4991270;28;19925;-62
2021/06/09 01:42:32;;;;;;;;;;;14.20;99.90;;;;;;4992170;28;20024;-63
2021/06/09 01:44:59;;;;;;;;;;;14.20;99.90;;;;;;4994729;28;19930;-63
2021/06/09 01:47:27;;;;;;;;;;;14.20;99.90;;;;;;4985471;28;19933;-63
2021/06/09 01:49:56;;;;;;;;;;;14.20;99.90;;;;;;4993782;28;19925;-65
2021/06/09 01:52:24;;;;;;;;;;;14.20;99.90;;;;;;4990681;28;19925;-63
2021/06/09 01:54:51;;;;;;;;;;;14.20;99.90;;;;;;4993504;28;19926;-62
2021/06/09 01:57:19;;;;;;;;;;;14.20;99.90;;;;;;4993860;28;19933;-62
2021/06/09 01:59:49;;;;;;;;;;;14.20;99.90;;;;;;4990280;28;19988;-63
2021/06/09 02:02:17;;;;;;;;;;;14.10;99.90;;;;;;4979526;28;19926;-64
2021/06/09 02:04:44;;;;;;;;;;;14.10;99.90;;;;;;4992004;28;19976;-62
2021/06/09 02:07:12;;;;;;;;;;;14.10;99.90;;;;;;4972825;28;19925;-62
2021/06/09 02:09:41;;;;;;;;;;;14.10;99.90;;;;;;4992383;28;19945;-63
2021/06/09 02:12:09;;;;;;;;;;;14.10;99.90;;;;;;4991504;28;19965;-61
2021/06/09 02:14:37;;;;;;;;;;;14.20;99.90;;;;;;4993739;28;20024;-66
2021/06/09 02:17:09;;;;;;;;;;;14.30;99.90;;;;;;4980522;28;19929;-63
2021/06/09 02:19:37;;;;;;;;;;;14.40;99.90;;;;;;4992480;28;20016;-62
2021/06/09 02:22:05;;;;;;;;;;;14.50;99.90;;;;;;4991750;28;19972;-63
2021/06/09 02:24:32;;;;;;;;;;;14.60;99.90;;;;;;4989374;28;19957;-63
2021/06/09 02:27:01;;;;;;;;;;;14.60;99.90;;;;;;4992904;28;20413;-63
2021/06/09 02:29:31;;;;;;;;;;;14.70;99.90;;;;;;4994955;28;20020;-63
2021/06/09 02:32:01;;;;;;;;;;;14.70;99.90;;;;;;4980149;28;19929;-63
2021/06/09 02:34:30;;;;;;;;;;;14.70;99.90;;;;;;4989010;28;20370;-61
2021/06/09 02:36:58;;;;;;;;;;;14.80;99.90;;;;;;4986838;28;19926;-62
2021/06/09 02:39:26;;;;;;;;;;;14.80;99.90;;;;;;4988664;28;19994;-62
2021/06/09 02:41:54;;;;;;;;;;;14.70;99.90;;;;;;4993582;28;19932;-62
2021/06/09 02:44:22;;;;;;;;;;;14.80;99.90;;;;;;4992219;28;19929;-62
2021/06/09 02:47:15;;;;;;;;;;;14.80;99.90;;;;;;4983926;28;20413;-62
2021/06/09 02:49:44;;;;;;;;;;;14.80;99.90;;;;;;4989443;28;20278;-62
2021/06/09 02:52:16;;;;;;;;;;;14.80;99.90;;;;;;4973176;28;19926;-62
2021/06/09 02:54:48;;;;;;;;;;;14.80;99.90;;;;;;4994440;28;20255;-62
2021/06/09 02:57:21;;;;;;;;;;;14.80;99.90;;;;;;4973358;28;19926;-63
2021/06/09 02:59:56;;;;;;;;;;;14.80;99.90;;;;;;4986829;28;19934;-62
2021/06/09 03:02:28;;;;;;;;;;;14.90;99.90;;;;;;4985431;28;20350;-62
2021/06/09 03:05:02;;;;;;;;;;;14.90;99.90;;;;;;4986994;28;20002;-63
2021/06/09 03:07:32;;;;;;;;;;;14.80;99.90;;;;;;4988229;28;19926;-62
2021/06/09 03:10:04;;;;;;;;;;;14.80;99.90;;;;;;4969443;28;19926;-62
2021/06/09 03:12:40;;;;;;;;;;;14.70;99.90;;;;;;4988779;28;19926;-62
2021/06/09 03:15:10;;;;;;;;;;;14.70;99.90;;;;;;4986622;28;19925;-62
2021/06/09 03:17:41;;;;;;;;;;;14.80;99.90;;;;;;4988191;28;20420;-62
2021/06/09 03:20:15;;;;;;;;;;;14.80;99.90;;;;;;4988639;28;20332;-62
2021/06/09 03:22:45;;;;;;;;;;;14.80;99.90;;;;;;4987872;28;20009;-62
2021/06/09 03:25:20;;;;;;;;;;;14.90;99.90;;;;;;4989110;28;19925;-62
2021/06/09 03:27:50;;;;;;;;;;;14.90;99.90;;;;;;4990658;28;19933;-62
2021/06/09 03:30:19;;;;;;;;;;;14.90;99.90;;;;;;4978211;28;19936;-62
2021/06/09 03:32:50;;;;;;;;;;;14.90;99.90;;;;;;4987698;28;19957;-62
2021/06/09 03:35:22;;;;;;;;;;;14.90;99.90;;;;;;4988105;28;19926;-62
2021/06/09 03:37:52;;;;;;;;;;;15.00;99.90;;;;;;4999932;23;22432;-64
2021/06/09 03:40:22;;;;;;;;;;;15.00;99.90;;;;;;4967643;28;19936;-64
2021/06/09 03:42:52;;;;;;;;;;;15.00;99.90;;;;;;4968979;28;19930;-64
2021/06/09 03:45:20;;;;;;;;;;;15.10;99.90;;;;;;4957210;28;20030;-64
2021/06/09 03:47:48;;;;;;;;;;;15.00;99.90;;;;;;4967137;28;19937;-64
2021/06/09 03:50:17;;;;;;;;;;;15.00;99.90;;;;;;4968436;28;19930;-64
2021/06/09 03:52:48;;;;;;;;;;;15.10;99.90;;;;;;4948167;28;19936;-64
2021/06/09 03:55:17;;;;;;;;;;;15.10;99.90;;;;;;4962975;28;19952;-65
2021/06/09 03:57:46;;;;;;;;;;;15.20;99.90;;;;;;4964392;28;19950;-64
2021/06/09 04:00:14;;;;;;;;;;;15.30;99.90;;;;;;4963657;28;20334;-64
2021/06/09 04:02:42;;;;;;;;;;;15.20;99.90;;;;;;4971849;28;19926;-63
2021/06/09 04:05:11;;;;;;;;;;;15.20;99.90;;;;;;4973867;28;20456;-63
2021/06/09 04:07:39;;;;;;;;;;;15.20;99.90;;;;;;4969325;28;20218;-64
2021/06/09 04:10:09;;;;;;;;;;;15.30;99.90;;;;;;4972619;28;19926;-64
2021/06/09 04:12:38;;;;;;;;;;;15.40;99.90;;;;;;4972518;28;19926;-64
2021/06/09 04:15:09;;;;;;;;;;;15.40;99.90;;;;;;4965632;28;20330;-64
2021/06/09 04:17:39;;;;;;;;;;;15.50;99.90;;;;;;4946160;28;20342;-64
2021/06/09 04:20:07;;;;;;;;;;;15.40;99.90;;;;;;4964435;28;20020;-64
2021/06/09 04:22:36;;;;;;;;;;;15.50;99.90;;;;;;4967549;28;19980;-64
2021/06/09 04:25:09;;;;;;;;;;;15.60;99.90;;;;;;4971902;28;19981;-64
2021/06/09 04:27:38;;;;;;;;;;;15.60;99.90;;;;;;4967878;28;19926;-64
2021/06/09 04:30:07;;;;;;;;;;;15.70;99.90;;;;;;4966783;28;19932;-64
2021/06/09 04:32:48;;;;;;;;;;;15.80;99.90;;;;;;4967074;28;20401;-64
2021/06/09 04:35:16;;;;;;;;;;;15.80;99.90;;;;;;4968018;28;20034;-64
2021/06/09 04:37:44;;;;;;;;;;;15.90;99.90;;;;;;4955062;28;19927;-64
2021/06/09 04:40:18;;;;;;;;;;;16.00;99.90;;;;;;4951518;29;20499;-64
2021/06/09 04:42:49;;;;;;;;;;;16.10;99.90;;;;;;4935757;29;19946;-64
2021/06/09 04:45:17;;;;;;;;;;;16.10;99.90;;;;;;4943215;28;19931;-64
2021/06/09 04:47:45;;;;;;;;;;;16.20;99.90;;;;;;4936425;29;19973;-64
2021/06/09 04:50:18;;;;;;;;;;;16.20;99.90;;;;;;4952295;29;19981;-64
2021/06/09 04:52:46;;;;;;;;;;;16.30;99.90;;;;;;4954516;29;20305;-64
2021/06/09 04:55:14;;;;;;;;;;;16.40;99.90;;;;;;4947129;29;20076;-63
2021/06/09 04:57:43;;;;;;;;;;;16.40;99.90;;;;;;4976660;23;19930;-63
2021/06/09 05:00:13;;;;;;;;;;;16.50;99.90;;;;;;4980950;28;20389;-65
2021/06/09 05:02:41;;;;;;;;;;;16.60;99.90;;;;;;4970701;28;20365;-62
2021/06/09 05:05:09;;;;;;;;;;;16.60;99.90;;;;;;4989431;28;19926;-62
2021/06/09 05:07:38;;;;;;;;;;;16.60;99.90;;;;;;4977705;28;19992;-62
2021/06/09 05:10:06;;;;;;;;;;;16.70;99.90;;;;;;4984769;28;19952;-63
2021/06/09 05:12:36;;;;;;;;;;;16.80;99.90;;;;;;4981802;28;20408;-62
2021/06/09 05:15:06;;;;;;;;;;;16.80;99.90;;;;;;4978476;28;19926;-62
2021/06/09 05:17:37;;;;;;;;;;;16.90;99.90;;;;;;4980959;28;20007;-63
2021/06/09 05:20:06;;;;;;;;;;;16.90;99.90;;;;;;4970078;28;19933;-62
2021/06/09 05:22:36;;;;;;;;;;;17.10;99.90;;;;;;4990015;28;20144;-62
2021/06/09 05:25:05;;;;;;;;;;;17.20;99.90;;;;;;4988547;28;19942;-66
2021/06/09 05:27:33;;;;;;;;;;;17.20;99.90;;;;;;4985534;28;19930;-61
2021/06/09 05:30:07;;;;;;;;;;;17.20;99.90;;;;;;4977970;28;20325;-61
2021/06/09 05:33:00;;;;;;;;;;;17.20;99.90;;;;;;4984647;28;19941;-61
2021/06/09 05:35:29;;;;;;;;;;;17.20;99.90;;;;;;4983803;28;19930;-62
2021/06/09 05:38:02;;;;;;;;;;;17.30;99.90;;;;;;4994150;28;20028;-61
2021/06/09 05:40:30;;;;;;;;;;;17.30;99.90;;;;;;4995157;28;19926;-61
2021/06/09 05:42:57;;;;;;;;;;;17.40;99.90;;;;;;4991514;28;19926;-67
2021/06/09 05:45:27;;;;;;;;;;;17.40;99.90;;;;;;4989990;28;19926;-61
2021/06/09 05:47:55;;;;;;;;;;;17.40;99.90;;;;;;4990986;28;20293;-64
2021/06/09 05:50:25;;;;;;;;;;;17.30;99.90;;;;;;4986102;28;19926;-62
2021/06/09 05:52:55;;;;;;;;;;;17.30;99.90;;;;;;4991562;28;20294;-63
2021/06/09 05:55:23;;;;;;;;;;;17.30;99.90;;;;;;4992478;28;20433;-63
2021/06/09 05:57:51;;;;;;;;;;;17.30;99.90;;;;;;4990634;28;19930;-63
2021/06/09 06:00:21;;;;;;;;;;;17.30;99.90;;;;;;4971709;28;20056;-65
2021/06/09 06:02:50;;;;;;;;;;;17.30;99.90;;;;;;4975558;28;20008;-62
2021/06/09 06:05:18;;;;;;;;;;;17.30;99.90;;;;;;4995728;28;20298;-62
2021/06/09 06:07:46;;;;;;;;;;;17.30;99.90;;;;;;4992094;28;19973;-62
2021/06/09 06:10:15;;;;;;;;;;;17.30;99.90;;;;;;4988501;28;19926;-62
2021/06/09 06:12:44;;;;;;;;;;;17.10;99.90;;;;;;4995838;28;19980;-65
2021/06/09 06:15:12;;;;;;;;;;;17.10;99.90;;;;;;4982362;28;19933;-62
2021/06/09 06:17:41;;;;;;;;;;;17.00;99.90;;;;;;4995922;28;19925;-62
2021/06/09 06:20:14;;;;;;;;;;;17.00;99.90;;;;;;4975864;28;20440;-62
2021/06/09 06:22:42;;;;;;;;;;;17.00;99.90;;;;;;4977470;28;20000;-62
2021/06/09 06:25:10;;;;;;;;;;;17.00;99.90;;;;;;4993857;28;20145;-62
2021/06/09 06:27:41;;;;;;;;;;;17.10;99.90;;;;;;4991369;28;19926;-62
2021/06/09 06:30:09;;;;;;;;;;;17.10;99.90;;;;;;4960429;28;20374;-61
2021/06/09 06:32:38;;;;;;;;;;;17.00;99.90;;;;;;4964675;28;19961;-61
2021/06/09 06:35:32;;;;;;;;;;;17.10;99.90;;;;;;4993443;28;19926;-63
2021/06/09 06:38:25;;;;;;;;;;;17.20;99.90;;;;;;4988401;28;19984;-62
2021/06/09 06:41:18;;;;;;;;;;;17.10;99.90;;;;;;4992817;28;19994;-63
2021/06/09 06:43:46;;;;;;;;;;;17.20;99.90;;;;;;4990499;28;19948;-63
2021/06/09 06:46:15;;;;;;;;;;;17.10;99.90;;;;;;4988727;28;19926;-68
2021/06/09 06:48:46;;;;;;;;;;;17.20;99.90;;;;;;4990475;28;20255;-63
2021/06/09 06:51:15;;;;;;;;;;;17.20;99.90;;;;;;4993197;28;20274;-63
2021/06/09 06:53:44;;;;;;;;;;;17.30;99.90;;;;;;4995741;28;19926;-62
2021/06/09 06:56:12;;;;;;;;;;;17.30;99.90;;;;;;4990776;28;19926;-62
2021/06/09 06:58:48;;;;;;;;;;;17.30;99.90;;;;;;4989698;28;19925;-62
2021/06/09 07:01:16;;;;;;;;;;;17.40;99.90;;;;;;4988465;28;19973;-62
2021/06/09 07:03:44;;;;;;;;;;;17.60;99.90;;;;;;4990860;28;19937;-62
2021/06/09 07:06:12;;;;;;;;;;;17.60;99.90;;;;;;4956375;28;20306;-61
2021/06/09 07:08:43;;;;;;;;;;;17.70;99.90;;;;;;4987102;28;19926;-61
2021/06/09 07:11:12;;;;;;;;;;;17.70;99.90;;;;;;4995229;28;19973;-62
2021/06/09 07:13:40;;;;;;;;;;;17.70;99.90;;;;;;4988584;28;20019;-63
2021/06/09 07:16:10;;;;;;;;;;;17.80;99.90;;;;;;4983870;28;20398;-61
2021/06/09 07:18:43;;;;;;;;;;;17.90;99.90;;;;;;4983823;28;20441;-62
2021/06/09 07:21:13;;;;;;;;;;;18.10;99.90;;;;;;4984388;28;19926;-64
2021/06/09 07:23:40;;;;;;;;;;;18.20;99.90;;;;;;4988448;28;19926;-62
2021/06/09 07:26:13;;;;;;;;;;;18.40;99.90;;;;;;4991267;28;19932;-62
2021/06/09 07:28:44;;;;;;;;;;;18.30;99.90;;;;;;4995590;28;19965;-65
2021/06/09 07:31:39;;;;;;;;;;;18.50;99.90;;;;;;4987465;28;19933;-61
2021/06/09 07:34:07;;;;;;;;;;;18.70;99.90;;;;;;4983827;28;19936;-62
2021/06/09 07:36:37;;;;;;;;;;;18.90;99.90;;;;;;4976996;28;19926;-63
2021/06/09 07:39:06;;;;;;;;;;;19.00;99.90;;;;;;4987305;28;19981;-61
2021/06/09 07:41:36;;;;;;;;;;;18.90;99.90;;;;;;4980241;28;20358;-62
2021/06/09 07:44:06;;;;;;;;;;;18.70;99.90;;;;;;4985230;28;19933;-61
2021/06/09 07:46:34;;;;;;;;;;;18.90;99.90;;;;;;4977669;28;19926;-61
2021/06/09 07:49:06;;;;;;;;;;;19.00;99.90;;;;;;4988334;28;19936;-62
2021/06/09 07:51:34;;;;;;;;;;;19.00;99.90;;;;;;4982075;28;19932;-64
2021/06/09 07:54:02;;;;;;;;;;;19.00;99.90;;;;;;4974308;28;19925;-62
2021/06/09 07:56:32;;;;;;;;;;;19.20;99.90;;;;;;4980109;28;19926;-62
2021/06/09 07:59:03;;;;;;;;;;;19.30;99.90;;;;;;4982809;28;19927;-62
2021/06/09 08:01:36;;;;;;;;;;;19.00;99.90;;;;;;4976160;28;19954;-63
2021/06/09 08:04:04;;;;;;;;;;;19.00;99.90;;;;;;4981869;28;19929;-62
2021/06/09 08:06:57;;;;;;;;;;;19.20;99.90;;;;;;4985686;28;19977;-62
2021/06/09 08:09:25;;;;;;;;;;;19.30;99.90;;;;;;4987959;28;19925;-63
2021/06/09 08:11:55;;;;;;;;;;;19.30;99.90;;;;;;4994734;28;19926;-63
2021/06/09 08:14:25;;;;;;;;;;;19.30;99.90;;;;;;4987927;28;19930;-63
2021/06/09 08:16:52;;;;;;;;;;;19.20;99.90;;;;;;4986760;28;19929;-62
2021/06/09 08:19:20;;;;;;;;;;;19.20;99.90;;;;;;4992522;28;20408;-65
2021/06/09 08:21:48;;;;;;;;;;;19.20;99.90;;;;;;4989626;28;19960;-62
2021/06/09 08:24:15;;;;;;;;;;;19.30;99.90;;;;;;4988454;28;19930;-63
2021/06/09 08:26:43;;;;;;;;;;;19.40;99.90;;;;;;4994465;28;19926;-63
2021/06/09 08:29:11;;;;;;;;;;;19.50;99.90;;;;;;4980641;28;19933;-62
2021/06/09 08:31:40;;;;;;;;;;;19.60;99.90;;;;;;4984904;28;20360;-61
2021/06/09 08:34:09;;;;;;;;;;;19.60;99.90;;;;;;4977331;28;19988;-65
2021/06/09 08:36:39;;;;;;;;;;;19.40;99.90;;;;;;4979174;28;19950;-64
2021/06/09 08:39:07;;;;;;;;;;;19.50;99.90;;;;;;4989454;28;20363;-61
2021/06/09 08:41:35;;;;;;;;;;;19.50;99.90;;;;;;4972231;28;20405;-62
2021/06/09 08:44:04;;;;;;;;;;;19.70;99.90;;;;;;4978117;28;19932;-64
2021/06/09 08:46:33;;;;;;;;;;;19.60;99.90;;;;;;4988030;28;19953;-62
2021/06/09 08:49:04;;;;;;;;;;;19.60;99.90;;;;;;4994789;28;20397;-63
2021/06/09 08:51:32;;;;;;;;;;;19.80;99.90;;;;;;4990510;28;19926;-61
2021/06/09 08:54:02;;;;;;;;;;;19.80;99.90;;;;;;4994901;28;19926;-61
2021/06/09 08:56:31;;;;;;;;;;;19.90;99.90;;;;;;4982072;28;20028;-61
2021/06/09 08:58:59;;;;;;;;;;;19.90;99.90;;;;;;4995838;28;20266;-61
2021/06/09 09:01:26;;;;;;;;;;;20.00;99.90;;;;;;4991354;28;20008;-61
2021/06/09 09:04:19;;;;;;;;;;;20.10;99.90;;;;;;4992438;28;19926;-61
2021/06/09 09:06:47;;;;;;;;;;;20.20;99.90;;;;;;4988874;28;20148;-61
2021/06/09 09:09:15;;;;;;;;;;;20.30;99.90;;;;;;4986496;28;19932;-61
2021/06/09 09:11:42;;;;;;;;;;;20.10;99.90;;;;;;4991993;28;19959;-61
2021/06/09 09:14:36;;;;;;;;;;;20.00;99.90;;;;;;4992381;28;19926;-61
2021/06/09 09:17:05;;;;;;;;;;;19.90;99.90;;;;;;4988030;28;19968;-60
2021/06/09 09:19:35;;;;;;;;;;;20.00;99.90;;;;;;4990622;28;19933;-61
2021/06/09 09:22:03;;;;;;;;;;;20.00;99.90;;;;;;4978176;28;19933;-63
2021/06/09 09:24:39;;;;;;;;;;;20.10;99.90;;;;;;4991582;28;20048;-60
2021/06/09 09:27:07;;;;;;;;;;;20.00;99.90;;;;;;4996347;28;19926;-62
2021/06/09 09:29:35;;;;;;;;;;;20.20;99.90;;;;;;4997104;28;20009;-61
2021/06/09 09:32:07;;;;;;;;;;;20.20;99.90;;;;;;4989977;28;19981;-62
2021/06/09 09:34:37;;;;;;;;;;;20.40;99.90;;;;;;4988394;28;19964;-60
2021/06/09 09:37:07;;;;;;;;;;;20.40;99.90;;;;;;4988082;28;19926;-61
2021/06/09 09:39:36;;;;;;;;;;;20.40;99.90;;;;;;4986701;28;20425;-60
2021/06/09 09:42:17;;;;;;;;;;;20.50;99.90;;;;;;4974999;28;20385;-61
2021/06/09 09:44:45;;;;;;;;;;;20.70;99.90;;;;;;4986122;28;19926;-63
2021/06/09 09:47:16;;;;;;;;;;;20.60;99.90;;;;;;4987847;28;19926;-60
2021/06/09 09:49:48;;;;;;;;;;;20.60;99.90;;;;;;4990760;28;20359;-62
2021/06/09 09:52:16;;;;;;;;;;;20.60;99.90;;;;;;4988524;28;20094;-63
2021/06/09 09:55:04;;;;;;;;;;;20.40;99.90;;;;;;4985388;28;20381;-60
2021/06/09 09:57:33;;;;;;;;;;;20.50;99.90;;;;;;4994337;28;19926;-62
2021/06/09 10:00:01;;;;;;;;;;;20.60;99.90;;;;;;4995871;28;19976;-61
2021/06/09 10:02:31;;;;;;;;;;;20.60;99.90;;;;;;4986667;28;19926;-62
2021/06/09 10:05:09;;;;;;;;;;;20.80;99.90;;;;;;4992771;28;19930;-61
2021/06/09 10:07:37;;;;;;;;;;;20.80;99.90;;;;;;4978837;28;19929;-61
2021/06/09 10:10:06;;;;;;;;;;;20.80;99.90;;;;;;4997319;28;19925;-61
2021/06/09 10:12:34;;;;;;;;;;;20.70;99.90;;;;;;4991660;28;20591;-61
2021/06/09 10:15:03;;;;;;;;;;;20.90;99.90;;;;;;4988720;28;19938;-63
2021/06/09 10:17:33;;;;;;;;;;;21.50;99.90;;;;;;4996022;28;19925;-63
2021/06/09 10:20:06;;;;;;;;;;;21.40;99.90;;;;;;4994368;28;19949;-62
2021/06/09 10:22:39;;;;;;;;;;;21.40;99.90;;;;;;4966928;28;19948;-63
2021/06/09 10:25:08;;;;;;;;;;;21.20;99.90;;;;;;4959971;28;19960;-63
2021/06/09 10:27:36;;;;;;;;;;;21.30;99.90;;;;;;4979087;28;19926;-62
2021/06/09 10:30:20;;;;;;;;;;;21.60;99.90;;;;;;4989432;28;20344;-62
2021/06/09 10:32:49;;;;;;;;;;;21.80;99.90;;;;;;4999810;28;20452;-63
2021/06/09 10:35:18;;;;;;;;;;;22.00;99.90;;;;;;4989785;28;19936;-61
2021/06/09 10:40:40;;;;;;;;;;;21.80;99.90;;;;;;4990637;28;19952;-61
2021/06/09 10:43:08;;;;;;;;;;;22.30;99.90;;;;;;4990830;28;19926;-62
2021/06/09 10:45:37;;;;;;;;;;;22.30;99.90;;;;;;4980561;28;19929;-61
2021/06/09 10:48:06;;;;;;;;;;;22.40;99.90;;;;;;4969736;28;19926;-61
2021/06/09 10:50:33;;;;;;;;;;;22.70;99.90;;;;;;4994793;28;19969;-61
2021/06/09 10:53:06;;;;;;;;;;;23.20;99.90;;;;;;4985990;28;20356;-62
2021/06/09 10:55:34;;;;;;;;;;;23.10;99.90;;;;;;4986967;28;19926;-62
2021/06/09 10:58:02;;;;;;;;;;;23.20;99.90;;;;;;4989346;28;19926;-61
2021/06/09 11:04:16;;;;;;;;;;;23.10;99.90;;;;;;4993679;28;20025;-61
2021/06/09 11:06:46;;;;;;;;;;;22.70;99.90;;;;;;4995626;28;19949;-62
2021/06/09 11:09:17;;;;;;;;;;;22.80;99.90;;;;;;4990214;28;19926;-62
2021/06/09 11:14:44;;;;;;;;;;;23.40;99.90;;;;;;4992976;28;20337;-60
2021/06/09 11:17:14;;;;;;;;;;;24.90;99.90;;;;;;4970806;28;19926;-61
2021/06/09 11:19:45;;;;;;;;;;;25.40;97.70;;;;;;4972655;28;19930;-60
2021/06/09 11:22:21;;;;;;;;;;;24.80;98.40;;;;;;4991936;28;19949;-63
2021/06/09 11:25:21;;;;;;;;;;;24.70;99.50;;;;;;4994052;28;20286;-61
2021/06/09 11:27:52;;;;;;;;;;;25.00;98.40;;;;;;4930604;29;20688;-60
2021/06/09 11:30:39;;;;;;;;;;;24.40;97.20;;;;;;4926755;29;20486;-67
2021/06/09 11:33:09;;;;;;;;;;;24.20;98.00;;;;;;4927336;29;19927;-61
2021/06/09 11:35:40;;;;;;;;;;;24.10;98.40;;;;;;4931650;29;19927;-61
2021/06/09 11:41:27;;;;;;;;;;;23.40;99.10;;;;;;4927696;29;19934;-62
2021/06/09 11:43:57;;;;;;;;;;;23.30;99.10;;;;;;4933967;29;20042;-61
2021/06/09 11:46:26;;;;;;;;;;;23.70;99.00;;;;;;4912664;29;19954;-62
2021/06/09 11:48:55;;;;;;;;;;;23.60;98.80;;;;;;4923098;29;20025;-61
2021/06/09 11:51:25;;;;;;;;;;;23.30;98.40;;;;;;4929888;29;20014;-62
2021/06/09 11:53:54;;;;;;;;;;;23.30;99.20;;;;;;4925638;29;20359;-62
2021/06/09 11:56:24;;;;;;;;;;;23.10;99.90;;;;;;4930789;29;19979;-64
2021/06/09 11:58:54;;;;;;;;;;;23.30;99.90;;;;;;4966997;28;20021;-62
2021/06/09 12:01:23;;;;;;;;;;;23.00;99.80;;;;;;4986667;28;19933;-62
2021/06/09 12:04:20;;;;;;;;;;;23.20;99.90;;;;;;5007680;28;19936;-62
2021/06/09 12:06:52;;;;;;;;;;;23.40;99.90;;;;;;4994233;28;19926;-62
2021/06/09 12:09:21;;;;;;;;;;;23.50;99.90;;;;;;4988835;28;19936;-63
2021/06/09 12:12:13;;;;;;;;;;;23.30;99.80;;;;;;4997987;28;19926;-62
2021/06/09 12:14:43;;;;;;;;;;;23.50;99.90;;;;;;4992614;28;19930;-62
2021/06/09 12:17:18;;;;;;;;;;;23.60;99.90;;;;;;4987780;28;19957;-62
2021/06/09 12:19:47;;;;;;;;;;;23.50;99.90;;;;;;4994795;28;19930;-64
2021/06/09 12:22:16;;;;;;;;;;;23.50;99.00;;;;;;4989928;28;20024;-62
2021/06/09 12:24:55;;;;;;;;;;;23.50;98.30;;;;;;4992457;28;19926;-65
2021/06/09 12:27:23;;;;;;;;;;;23.80;99.00;;;;;;4982259;28;20271;-61
2021/06/09 12:29:51;;;;;;;;;;;23.90;98.60;;;;;;4992371;28;20124;-66
2021/06/09 12:32:21;;;;;;;;;;;24.00;98.20;;;;;;4987595;28;20369;-62
2021/06/09 12:34:51;;;;;;;;;;;24.20;98.50;;;;;;4985240;28;20073;-61
2021/06/09 12:37:49;;;;;;;;;;;24.20;97.70;;;;;;4988191;28;19961;-62
2021/06/09 12:40:24;;;;;;;;;;;24.00;97.20;;;;;;4973907;28;19926;-62
2021/06/09 12:42:52;;;;;;;;;;;24.40;97.80;;;;;;4990576;28;19930;-63
2021/06/09 12:45:23;;;;;;;;;;;24.50;95.30;;;;;;4986187;28;19926;-61
2021/06/09 12:47:53;;;;;;;;;;;24.40;95.40;;;;;;4991057;28;19930;-61
2021/06/09 12:50:23;;;;;;;;;;;24.30;96.00;;;;;;4991323;28;19999;-61
2021/06/09 12:52:51;;;;;;;;;;;24.30;95.40;;;;;;4993205;28;19956;-61
2021/06/09 12:55:23;;;;;;;;;;;24.40;95.40;;;;;;4992873;28;20038;-61
2021/06/09 12:57:51;;;;;;;;;;;24.00;95.00;;;;;;4987429;28;20309;-61
2021/06/09 13:00:25;;;;;;;;;;;23.80;97.00;;;;;;4984332;28;19950;-61
2021/06/09 13:03:24;;;;;;;;;;;23.90;97.60;;;;;;4992381;28;19930;-61
2021/06/09 13:06:16;;;;;;;;;;;24.30;97.70;;;;;;4991989;28;19932;-61
2021/06/09 13:08:45;;;;;;;;;;;24.50;96.40;;;;;;4984067;28;19930;-66
2021/06/09 13:11:15;;;;;;;;;;;24.30;96.40;;;;;;4989190;28;19972;-66
2021/06/09 13:13:43;;;;;;;;;;;24.40;96.10;;;;;;4975769;28;19930;-62
2021/06/09 13:16:14;;;;;;;;;;;24.10;95.40;;;;;;4980357;28;20398;-61
2021/06/09 13:18:47;;;;;;;;;;;24.30;96.40;;;;;;4988540;28;20374;-61
2021/06/09 13:21:17;;;;;;;;;;;24.40;96.10;;;;;;4989209;28;19953;-64
2021/06/09 13:23:45;;;;;;;;;;;24.60;96.20;;;;;;4986439;28;19926;-61
2021/06/09 13:26:15;;;;;;;;;;;24.70;96.60;;;;;;4990140;28;20286;-62
2021/06/09 13:28:43;;;;;;;;;;;24.70;96.50;;;;;;4978974;28;19934;-62
2021/06/09 13:31:12;;;;;;;;;;;24.30;95.40;;;;;;4973695;28;20407;-61
2021/06/09 13:33:40;;;;;;;;;;;24.50;95.80;;;;;;4993244;28;19926;-63
2021/06/09 13:36:16;;;;;;;;;;;24.60;96.10;;;;;;4975213;28;19926;-61
2021/06/09 13:41:38;;;;;;;;;;;24.80;95.60;;;;;;4987799;28;19926;-63
2021/06/09 13:44:06;;;;;;;;;;;24.60;95.40;;;;;;4985141;28;19925;-62
2021/06/09 13:46:42;;;;;;;;;;;24.60;95.50;;;;;;4987342;28;19925;-62
2021/06/09 13:49:09;;;;;;;;;;;24.60;95.20;;;;;;4990851;28;19984;-63
2021/06/09 13:51:39;;;;;;;;;;;24.90;95.80;;;;;;4995829;28;19957;-61
2021/06/09 13:54:09;;;;;;;;;;;24.80;94.50;;;;;;4990545;28;19926;-61
2021/06/09 13:56:40;;;;;;;;;;;24.70;94.60;;;;;;4991775;28;19998;-61
2021/06/09 13:59:15;;;;;;;;;;;25.00;94.60;;;;;;4990417;28;19976;-61
2021/06/09 14:01:53;;;;;;;;;;;25.60;94.30;;;;;;4983851;28;19940;-61
2021/06/09 14:04:24;;;;;;;;;;;25.80;93.40;;;;;;4995074;28;19933;-61
2021/06/09 14:07:03;;;;;;;;;;;26.10;93.60;;;;;;4977408;28;20707;-61
2021/06/09 14:09:32;;;;;;;;;;;26.20;93.00;;;;;;4992177;28;19933;-61
2021/06/09 14:12:01;;;;;;;;;;;25.70;91.90;;;;;;4977301;28;20389;-61
2021/06/09 14:14:32;;;;;;;;;;;25.50;93.40;;;;;;4995312;28;19926;-61
2021/06/09 14:17:04;;;;;;;;;;;25.30;92.40;;;;;;4988987;28;19965;-61
2021/06/09 14:19:32;;;;;;;;;;;25.20;94.10;;;;;;4995460;28;19926;-61
2021/06/09 14:22:01;;;;;;;;;;;24.90;93.10;;;;;;4995508;28;19926;-62
2021/06/09 14:24:30;;;;;;;;;;;24.70;94.40;;;;;;4978289;28;20140;-61
2021/06/09 14:27:03;;;;;;;;;;;24.80;95.10;;;;;;4995618;28;19933;-62
2021/06/09 14:29:31;;;;;;;;;;;25.00;94.90;;;;;;4996157;28;19926;-62
2021/06/09 14:32:06;;;;;;;;;;;25.20;95.00;;;;;;4988974;28;20016;-62
2021/06/09 14:34:38;;;;;;;;;;;25.50;95.00;;;;;;4994806;28;19957;-61
2021/06/09 14:37:12;;;;;;;;;;;25.40;93.60;;;;;;4995094;28;19930;-60
2021/06/09 14:39:41;;;;;;;;;;;25.00;92.10;;;;;;4992007;28;19926;-61
2021/06/09 14:42:09;;;;;;;;;;;25.20;92.50;;;;;;4987999;28;20025;-61
2021/06/09 14:44:39;;;;;;;;;;;25.40;94.00;;;;;;4976103;28;19925;-61
2021/06/09 14:47:17;;;;;;;;;;;25.20;91.80;;;;;;4988626;28;19972;-62
2021/06/09 14:49:47;;;;;;;;;;;24.90;90.80;;;;;;4968493;28;19957;-63
2021/06/09 14:52:18;;;;;;;;;;;24.70;90.40;;;;;;4994117;28;19925;-60